Time;durP1;ratioP1;P1;durP2;ratioP2;P2;SDS_P1;SDS_P2;PMS_P1;PMS_P2;Temp;Humidity;BMP_temperature;BMP_pressure;BME280_temperature;BME280_humidity;BME280_pressure;Samples;Min_cycle;Max_cycle;Signal;HPM_P1;HPM_P2
2023/08/29 00:01:37;;;;;;;7.40;5.00;;;;;;;29.88;60.77;100525.19;4924397;28;69884;-37
2023/08/29 00:04:07;;;;;;;12.00;6.53;;;;;;;29.92;62.80;100535.34;4933256;28;65900;-37
2023/08/29 00:06:37;;;;;;;9.48;6.97;;;;;;;29.96;64.37;100535.72;4942427;28;70209;-37
2023/08/29 00:09:07;;;;;;;10.70;8.48;;;;;;;30.00;66.19;100524.22;4931107;28;66090;-37
2023/08/29 00:11:37;;;;;;;14.57;9.85;;;;;;;30.06;67.41;100525.22;4933316;28;69429;-38
2023/08/29 00:14:07;;;;;;;13.20;10.32;;;;;;;30.06;68.39;100523.34;4914107;28;65975;-37
2023/08/29 00:16:37;;;;;;;13.98;10.25;;;;;;;30.13;69.54;100528.69;4916080;28;69580;-38
2023/08/29 00:19:08;;;;;;;12.15;8.80;;;;;;;30.23;69.77;100541.75;4919863;28;66380;-38
2023/08/29 00:21:38;;;;;;;17.83;9.52;;;;;;;30.30;70.42;100544.38;4920577;28;69601;-38
2023/08/29 00:24:09;;;;;;;11.45;9.52;;;;;;;30.34;71.06;100529.31;4920109;28;66548;-38
2023/08/29 00:26:39;;;;;;;18.88;10.60;;;;;;;30.15;70.88;100488.72;4908955;28;71328;-37
2023/08/29 00:29:09;;;;;;;14.65;10.65;;;;;;;30.47;71.29;100546.25;4922378;28;66195;-38
2023/08/29 00:31:40;;;;;;;16.15;11.30;;;;;;;30.54;71.45;100548.91;4918754;28;70951;-38
2023/08/29 00:34:10;;;;;;;15.75;11.50;;;;;;;30.55;71.15;100542.41;4905774;28;66313;-37
2023/08/29 00:36:40;;;;;;;22.63;11.65;;;;;;;30.61;71.56;100556.94;4910904;28;70461;-36
2023/08/29 00:39:10;;;;;;;13.02;10.80;;;;;;;30.59;70.83;100548.19;4933496;28;66248;-37
2023/08/29 00:41:41;;;;;;;23.77;10.82;;;;;;;30.64;71.58;100562.72;4917310;28;70363;-35
2023/08/29 00:44:11;;;;;;;10.15;8.95;;;;;;;30.65;71.41;100560.84;4927211;28;67738;-36
2023/08/29 00:46:42;;;;;;;12.25;9.25;;;;;;;30.58;71.40;100552.78;4937807;28;69653;-35
2023/08/29 00:49:15;;;;;;;14.75;7.97;;;;;;;30.53;72.54;100533.69;4918169;28;68107;-36
2023/08/29 00:51:46;;;;;;;11.93;8.00;;;;;;;30.72;72.50;100562.41;4918083;28;69795;-36
2023/08/29 00:54:19;;;;;;;7.72;6.93;;;;;;;30.68;68.98;100557.69;4920340;28;65446;-35
2023/08/29 00:56:49;;;;;;;6.60;6.00;;;;;;;30.68;68.39;100569.34;4898106;28;70563;-36
2023/08/29 00:59:20;;;;;;;9.63;6.00;;;;;;;30.62;68.18;100554.00;4904221;28;66290;-35
2023/08/29 01:01:51;;;;;;;6.60;6.03;;;;;;;30.67;68.11;100561.44;4920790;28;69986;-36
2023/08/29 01:04:21;;;;;;;6.10;5.43;;;;;;;30.75;67.79;100563.00;4914612;28;65360;-36
2023/08/29 01:06:54;;;;;;;8.77;6.22;;;;;;;30.77;67.48;100560.91;4884062;28;69485;-36
2023/08/29 01:09:25;;;;;;;6.95;6.10;;;;;;;30.80;67.16;100560.47;4884410;28;65566;-36
2023/08/29 01:12:15;;;;;;;6.20;5.60;;;;;;;30.45;67.23;100502.38;4882810;29;69944;-35
2023/08/29 01:15:11;;;;;;;12.20;5.70;;;;;;;30.71;67.58;100563.47;4886698;28;66699;-35
2023/08/29 01:18:03;;;;;;;5.63;5.22;;;;;;;30.78;67.79;100576.91;4893565;28;70417;-35
2023/08/29 01:20:36;;;;;;;6.30;5.05;;;;;;;30.51;66.50;100514.16;4883483;28;66087;-36
2023/08/29 01:23:09;;;;;;;6.53;5.13;;;;;;;30.91;66.75;100582.19;4896697;28;70045;-35
2023/08/29 01:25:52;;;;;;;5.35;4.95;;;;;;;30.93;66.29;100582.81;4886429;28;65532;-35
2023/08/29 01:28:24;;;;;;;7.38;4.50;;;;;;;30.93;66.12;100571.16;4900004;28;69335;-35
2023/08/29 01:30:56;;;;;;;5.22;4.82;;;;;;;30.96;66.15;100581.53;4901623;28;66735;-36
2023/08/29 01:33:27;;;;;;;6.40;5.13;;;;;;;30.91;66.04;100567.84;4881838;29;69594;-36
2023/08/29 01:35:57;;;;;;;6.88;4.95;;;;;;;30.95;66.06;100579.84;4900008;28;65703;-36
2023/08/29 01:38:27;;;;;;;4.78;4.40;;;;;;;31.03;66.06;100584.97;4901639;28;70276;-36
2023/08/29 01:40:57;;;;;;;4.78;4.35;;;;;;;30.80;65.90;100545.06;4885174;29;64864;-36
2023/08/29 01:43:27;;;;;;;3.95;3.65;;;;;;;31.07;65.85;100588.88;4885823;29;70773;-37
2023/08/29 01:45:58;;;;;;;5.18;4.22;;;;;;;31.02;65.85;100572.47;4873255;29;67013;-35
2023/08/29 01:48:28;;;;;;;4.72;4.32;;;;;;;31.11;65.98;100587.34;4885696;28;69261;-35
2023/08/29 01:50:59;;;;;;;4.70;4.40;;;;;;;31.14;65.80;100588.78;4895854;28;67006;-36
2023/08/29 01:53:29;;;;;;;4.97;4.50;;;;;;;31.14;65.61;100589.59;4884013;29;70225;-35
2023/08/29 01:56:01;;;;;;;4.00;3.70;;;;;;;31.06;66.03;100579.09;4869813;29;66120;-36
2023/08/29 01:58:33;;;;;;;4.70;3.88;;;;;;;31.11;66.13;100579.22;4884520;29;70157;-35
2023/08/29 02:01:03;;;;;;;4.10;3.70;;;;;;;31.20;66.06;100603.28;4882148;29;66454;-36
2023/08/29 02:03:53;;;;;;;4.50;4.10;;;;;;;31.23;65.72;100608.25;4890333;28;70396;-35
2023/08/29 02:06:23;;;;;;;4.28;3.88;;;;;;;31.21;65.84;100604.97;4885187;28;66042;-36
2023/08/29 02:08:54;;;;;;;3.47;3.17;;;;;;;31.27;65.50;100610.28;4895803;28;69846;-36
2023/08/29 02:11:24;;;;;;;5.22;3.80;;;;;;;31.29;65.74;100612.78;4903637;28;66624;-37
2023/08/29 02:13:58;;;;;;;6.15;4.00;;;;;;;31.31;65.64;100613.34;4907059;28;69515;-35
2023/08/29 02:16:31;;;;;;;3.78;3.47;;;;;;;31.22;65.89;100596.59;4924843;28;66214;-36
2023/08/29 02:19:02;;;;;;;4.35;3.95;;;;;;;31.35;65.81;100617.28;4923351;28;70573;-35
2023/08/29 02:21:32;;;;;;;3.75;3.45;;;;;;;31.33;65.77;100608.53;4925646;28;65198;-36
2023/08/29 02:24:03;;;;;;;3.95;3.47;;;;;;;31.37;66.21;100612.47;4925431;28;70710;-36
2023/08/29 02:26:33;;;;;;;4.45;3.88;;;;;;;31.39;65.98;100602.22;4907609;28;65888;-37
2023/08/29 02:29:03;;;;;;;4.32;3.30;;;;;;;31.38;66.11;100601.41;4937365;28;70154;-37
2023/08/29 02:31:33;;;;;;;4.47;4.05;;;;;;;31.44;65.94;100598.84;4925104;28;66460;-36
2023/08/29 02:34:04;;;;;;;4.22;3.65;;;;;;;31.47;66.59;100592.94;4903795;28;70689;-37
2023/08/29 02:36:34;;;;;;;4.57;3.40;;;;;;;31.48;66.38;100595.44;4927507;28;66757;-37
2023/08/29 02:39:04;;;;;;;4.57;3.42;;;;;;;31.51;66.01;100600.41;4926371;28;69629;-36
2023/08/29 02:41:34;;;;;;;3.42;3.22;;;;;;;31.53;66.21;100592.84;4888486;28;65366;-40
2023/08/29 02:44:04;;;;;;;5.20;3.60;;;;;;;31.55;66.13;100590.72;4923355;28;69472;-36
2023/08/29 02:46:34;;;;;;;4.07;3.60;;;;;;;31.56;65.78;100586.94;4922964;28;65640;-36
2023/08/29 02:49:04;;;;;;;4.90;4.10;;;;;;;31.55;66.26;100582.59;4922761;28;69648;-36
2023/08/29 02:51:34;;;;;;;4.53;3.85;;;;;;;31.63;65.61;100583.34;4924419;28;66459;-35
2023/08/29 02:54:05;;;;;;;8.45;4.13;;;;;;;31.63;65.81;100580.63;4922905;28;70338;-37
2023/08/29 02:56:35;;;;;;;3.70;3.30;;;;;;;31.58;65.93;100559.63;4924741;28;65622;-36
2023/08/29 02:59:05;;;;;;;3.90;3.60;;;;;;;31.67;65.83;100570.94;4923708;28;69991;-36
2023/08/29 03:01:35;;;;;;;4.63;3.72;;;;;;;31.56;65.70;100549.00;4913850;28;65547;-36
2023/08/29 03:04:05;;;;;;;4.97;3.60;;;;;;;31.70;65.61;100570.47;4906585;28;69660;-37
2023/08/29 03:06:37;;;;;;;4.55;3.60;;;;;;;31.71;66.02;100574.88;4914776;28;66706;-36
2023/08/29 03:09:07;;;;;;;4.22;3.83;;;;;;;31.67;65.57;100566.34;4895025;28;69826;-38
2023/08/29 03:11:37;;;;;;;3.95;3.63;;;;;;;31.76;65.51;100564.13;4896113;28;65526;-37
2023/08/29 03:14:09;;;;;;;4.57;3.40;;;;;;;31.68;65.52;100548.19;4910341;28;69564;-36
2023/08/29 03:16:39;;;;;;;3.63;3.23;;;;;;;31.76;65.53;100553.25;4912359;28;66623;-36
2023/08/29 03:19:09;;;;;;;3.95;3.35;;;;;;;31.58;65.45;100524.38;4896564;28;70126;-37
2023/08/29 03:21:39;;;;;;;3.80;3.40;;;;;;;31.85;65.29;100551.88;4910082;28;66724;-38
2023/08/29 03:24:09;;;;;;;5.28;3.60;;;;;;;31.77;65.19;100554.94;4919629;28;70298;-36
2023/08/29 03:26:40;;;;;;;5.00;3.72;;;;;;;31.88;65.23;100543.28;4905436;28;66726;-36
2023/08/29 03:29:09;;;;;;;4.50;3.35;;;;;;;31.91;65.23;100553.69;4909252;28;70210;-35
2023/08/29 03:31:40;;;;;;;3.97;3.38;;;;;;;31.91;65.16;100556.38;4890609;28;66497;-36
2023/08/29 03:34:10;;;;;;;3.97;3.10;;;;;;;31.95;65.18;100562.97;4905798;28;70158;-36
2023/08/29 03:36:40;;;;;;;4.63;2.85;;;;;;;31.96;65.00;100564.66;4905672;28;65994;-37
2023/08/29 03:39:10;;;;;;;4.35;3.17;;;;;;;31.99;65.03;100558.75;4910490;28;70473;-37
2023/08/29 03:41:41;;;;;;;6.22;3.50;;;;;;;32.00;65.05;100557.69;4908815;28;65442;-36
2023/08/29 03:44:12;;;;;;;4.05;2.85;;;;;;;32.02;64.98;100561.00;4928611;28;70250;-36
2023/08/29 03:46:42;;;;;;;3.25;2.95;;;;;;;32.00;64.72;100557.69;4920564;28;66249;-36
2023/08/29 03:49:12;;;;;;;3.33;3.03;;;;;;;32.06;64.75;100564.06;4925950;28;69422;-37
2023/08/29 03:51:42;;;;;;;3.20;2.88;;;;;;;32.07;64.81;100551.31;4927238;28;66434;-37
2023/08/29 03:54:12;;;;;;;2.95;2.65;;;;;;;32.10;64.59;100556.28;4904054;28;70223;-36
2023/08/29 03:56:43;;;;;;;3.42;2.95;;;;;;;32.13;64.71;100550.38;4909772;28;66610;-39
2023/08/29 03:59:13;;;;;;;5.10;3.03;;;;;;;32.13;64.54;100553.09;4903979;28;70461;-41
2023/08/29 04:01:44;;;;;;;3.13;2.83;;;;;;;32.14;64.43;100549.31;4906762;28;65810;-36
2023/08/29 04:04:14;;;;;;;4.57;2.92;;;;;;;32.12;64.64;100535.16;4915656;28;69506;-36
2023/08/29 04:06:45;;;;;;;3.60;2.63;;;;;;;32.18;64.36;100550.47;4891198;28;66128;-36
2023/08/29 04:09:15;;;;;;;3.22;2.90;;;;;;;32.21;64.20;100539.16;4898043;28;70262;-36
2023/08/29 04:11:45;;;;;;;5.65;3.03;;;;;;;32.20;64.43;100534.78;4908156;28;65659;-36
2023/08/29 04:14:15;;;;;;;7.85;3.00;;;;;;;32.24;64.24;100538.69;4910394;28;69953;-37
2023/08/29 04:16:45;;;;;;;2.90;2.63;;;;;;;32.23;64.09;100526.16;4912109;28;65264;-37
2023/08/29 04:19:16;;;;;;;5.93;3.13;;;;;;;32.27;64.12;100527.34;4901804;28;69437;-36
2023/08/29 04:21:46;;;;;;;3.45;2.97;;;;;;;32.27;64.17;100533.59;4913105;28;66170;-36
2023/08/29 04:24:18;;;;;;;3.33;3.03;;;;;;;32.20;64.12;100518.50;4896157;28;43820;-35
2023/08/29 04:26:49;;;;;;;3.22;2.92;;;;;;;32.27;64.06;100511.91;4899971;28;66582;-36
2023/08/29 04:29:18;;;;;;;3.88;3.33;;;;;;;32.31;64.01;100512.22;4914976;28;70317;-37
2023/08/29 04:31:51;;;;;;;3.42;2.97;;;;;;;32.23;63.91;100490.88;4912866;28;65597;-38
2023/08/29 04:34:23;;;;;;;4.35;3.40;;;;;;;32.34;63.94;100500.88;4907453;28;69390;-36
2023/08/29 04:36:53;;;;;;;;;;;;;;;32.08;64.59;100494.09;4914079;28;66134;-36
2023/08/29 04:39:23;;;;;;;2.92;2.63;;;;;;;32.34;63.96;100505.50;4914172;28;70355;-37
2023/08/29 04:41:53;;;;;;;4.10;3.45;;;;;;;32.28;64.13;100485.56;4895840;28;66498;-36
2023/08/29 04:44:24;;;;;;;3.63;2.70;;;;;;;32.37;63.91;100484.13;4901637;28;70405;-36
2023/08/29 04:46:54;;;;;;;9.23;3.40;;;;;;;32.38;63.93;100483.06;4893080;28;65967;-36
2023/08/29 04:49:24;;;;;;;3.42;3.13;;;;;;;32.42;63.72;100476.09;4903554;28;69475;-36
2023/08/29 04:51:55;;;;;;;4.53;3.53;;;;;;;32.34;63.65;100456.66;4894315;28;65881;-36
2023/08/29 04:54:25;;;;;;;5.15;3.20;;;;;;;32.43;63.66;100466.03;4894923;28;69206;-35
2023/08/29 04:56:56;;;;;;;3.92;3.60;;;;;;;32.46;63.66;100458.31;4918495;28;66493;-37
2023/08/29 04:59:26;;;;;;;5.72;3.42;;;;;;;32.49;63.48;100460.53;4915722;28;70628;-36
2023/08/29 05:01:57;;;;;;;8.40;3.47;;;;;;;32.47;63.47;100440.94;4911657;28;66264;-36
2023/08/29 05:04:28;;;;;;;4.10;3.80;;;;;;;32.39;63.47;100421.47;4909349;28;69106;-37
2023/08/29 05:06:58;;;;;;;4.32;3.20;;;;;;;32.38;63.42;100419.81;4894138;28;66457;-35
2023/08/29 05:09:28;;;;;;;3.55;3.25;;;;;;;32.55;63.22;100438.91;4908532;28;70189;-37
2023/08/29 05:11:58;;;;;;;4.97;3.40;;;;;;;32.56;63.33;100432.41;4893453;28;66123;-37
2023/08/29 05:14:28;;;;;;;3.83;3.47;;;;;;;32.59;63.46;100423.78;4893480;28;69103;-37
2023/08/29 05:16:58;;;;;;;3.80;3.10;;;;;;;32.62;63.08;100415.13;4891083;28;66410;-39
2023/08/29 05:19:29;;;;;;;5.63;3.55;;;;;;;32.61;62.91;100410.78;4897931;28;70223;-41
2023/08/29 05:21:59;;;;;;;4.45;3.38;;;;;;;32.66;62.96;100416.31;4906058;28;66668;-36
2023/08/29 05:24:29;;;;;;;3.28;2.97;;;;;;;32.67;63.10;100407.09;4923836;28;69738;-38
2023/08/29 05:26:59;;;;;;;5.57;3.45;;;;;;;32.69;62.79;100415.81;4914435;28;66878;-36
2023/08/29 05:29:29;;;;;;;3.55;3.08;;;;;;;32.68;62.83;100404.13;4916091;28;69365;-35
2023/08/29 05:31:59;;;;;;;3.50;3.13;;;;;;;32.71;62.89;100408.25;4902872;28;65328;-36
2023/08/29 05:34:30;;;;;;;3.90;3.50;;;;;;;32.73;62.66;100416.97;4898713;28;68589;-36
2023/08/29 05:37:00;;;;;;;6.82;3.60;;;;;;;32.70;62.62;100396.56;4913039;28;65538;-37
2023/08/29 05:39:30;;;;;;;4.55;3.38;;;;;;;32.75;62.71;100405.88;4904193;28;70164;-38
2023/08/29 05:42:00;;;;;;;7.22;3.83;;;;;;;32.78;62.55;100398.06;4909862;28;66992;-38
2023/08/29 05:44:30;;;;;;;4.40;3.60;;;;;;;32.81;62.77;100402.16;4916151;28;69465;-37
2023/08/29 05:47:00;;;;;;;4.13;3.40;;;;;;;32.82;62.61;100388.34;4911562;28;65345;-36
2023/08/29 05:49:30;;;;;;;8.82;3.08;;;;;;;32.84;62.52;100386.19;4916809;28;69758;-38
2023/08/29 05:52:00;;;;;;;4.35;3.05;;;;;;;32.86;62.52;100375.91;4899109;28;66978;-36
2023/08/29 05:54:30;;;;;;;5.05;3.30;;;;;;;32.87;62.27;100369.41;4912171;28;69868;-43
2023/08/29 05:57:00;;;;;;;4.95;3.53;;;;;;;32.89;62.42;100361.03;4920884;28;66232;-36
2023/08/29 05:59:31;;;;;;;3.63;3.33;;;;;;;32.91;62.25;100354.28;4918266;28;69347;-35
2023/08/29 06:02:03;;;;;;;4.00;3.22;;;;;;;32.94;62.39;100353.78;4918977;28;65785;-36
2023/08/29 06:04:33;;;;;;;5.78;3.42;;;;;;;32.96;62.09;100345.41;4908561;28;70409;-37
2023/08/29 06:07:04;;;;;;;3.65;3.35;;;;;;;32.97;62.07;100340.78;4911943;28;65939;-37
2023/08/29 06:09:35;;;;;;;5.18;3.58;;;;;;;32.97;62.19;100336.16;4923795;28;70525;-36
2023/08/29 06:12:06;;;;;;;7.95;3.88;;;;;;;33.04;61.97;100352.31;4919153;28;66153;-37
2023/08/29 06:14:36;;;;;;;;;;;;;;;32.80;62.24;100333.44;4917895;28;69681;-36
2023/08/29 06:17:06;;;;;;;3.40;3.10;;;;;;;33.05;61.78;100332.25;4918560;28;67264;-36
2023/08/29 06:19:36;;;;;;;3.92;3.63;;;;;;;33.07;61.64;100311.06;4917197;28;70282;-36
2023/08/29 06:22:06;;;;;;;4.35;3.70;;;;;;;33.13;61.71;100318.25;4919826;28;65837;-37
2023/08/29 06:24:36;;;;;;;7.07;3.83;;;;;;;33.13;61.55;100310.91;4917132;28;69355;-38
2023/08/29 06:27:06;;;;;;;4.72;4.05;;;;;;;33.17;61.52;100302.25;4913770;28;66499;-36
2023/08/29 06:29:36;;;;;;;4.70;3.88;;;;;;;33.18;61.59;100298.44;4913954;28;70180;-37
2023/08/29 06:32:07;;;;;;;4.17;3.77;;;;;;;33.19;61.46;100309.09;4917986;28;66536;-36
2023/08/29 06:34:37;;;;;;;4.20;3.85;;;;;;;33.13;61.32;100294.59;4917752;28;69043;-36
2023/08/29 06:37:07;;;;;;;4.55;4.15;;;;;;;33.25;61.29;100310.78;4910135;28;66203;-36
2023/08/29 06:39:37;;;;;;;4.63;4.10;;;;;;;33.24;61.46;100287.41;4915978;28;69447;-37
2023/08/29 06:42:07;;;;;;;5.30;4.80;;;;;;;33.27;61.09;100281.47;4910663;28;66484;-37
2023/08/29 06:44:38;;;;;;;7.43;4.72;;;;;;;33.28;61.37;100269.50;4926833;28;70036;-39
2023/08/29 06:47:08;;;;;;;4.80;4.40;;;;;;;33.30;61.04;100270.09;4900353;28;65731;-36
2023/08/29 06:49:38;;;;;;;4.40;4.10;;;;;;;33.26;60.97;100252.63;4912887;28;69410;-36
2023/08/29 06:52:08;;;;;;;6.32;4.10;;;;;;;33.38;61.26;100272.38;4908307;28;65282;-37
2023/08/29 06:54:38;;;;;;;4.50;4.13;;;;;;;33.40;61.20;100268.56;4918388;28;70078;-35
2023/08/29 06:57:09;;;;;;;4.93;4.50;;;;;;;33.42;60.97;100261.00;4919398;28;64998;-35
2023/08/29 06:59:39;;;;;;;4.85;4.07;;;;;;;33.46;60.88;100256.69;4917711;28;70319;-38
2023/08/29 07:02:09;;;;;;;5.47;4.68;;;;;;;33.46;60.74;100237.66;4915802;28;66036;-36
2023/08/29 07:04:39;;;;;;;4.38;3.97;;;;;;;33.48;60.36;100230.06;4914993;28;70405;-36
2023/08/29 07:07:09;;;;;;;5.00;4.50;;;;;;;33.52;60.88;100223.06;4914604;28;65304;-34
2023/08/29 07:09:39;;;;;;;4.15;3.85;;;;;;;33.52;60.31;100212.19;4923634;28;69991;-36
2023/08/29 07:12:10;;;;;;;5.13;4.63;;;;;;;33.56;60.48;100216.06;4914515;28;66331;-35
2023/08/29 07:14:40;;;;;;;5.03;4.53;;;;;;;33.53;60.00;100202.97;4910524;28;70454;-36
2023/08/29 07:17:10;;;;;;;4.82;4.30;;;;;;;33.60;60.01;100206.34;4914491;28;65415;-36
2023/08/29 07:19:40;;;;;;;4.40;4.00;;;;;;;33.58;60.43;100201.13;4912160;28;70036;-36
2023/08/29 07:22:10;;;;;;;5.05;4.45;;;;;;;33.65;60.17;100194.66;4913256;28;66283;-36
2023/08/29 07:24:51;;;;;;;;;;;;;;;33.45;60.22;100176.22;4910691;28;69455;-36
2023/08/29 07:27:21;;;;;;;4.95;4.47;;;;;;;33.60;60.19;100154.66;4912241;28;66515;-37
2023/08/29 07:29:52;;;;;;;4.97;4.57;;;;;;;33.73;59.92;100165.13;4915279;28;70032;-36
2023/08/29 07:32:23;;;;;;;4.90;4.55;;;;;;;33.75;59.79;100168.41;4892277;28;65050;-36
2023/08/29 07:34:56;;;;;;;5.25;4.82;;;;;;;33.81;60.00;100182.88;4920048;28;69978;-36
2023/08/29 07:37:26;;;;;;;6.15;5.57;;;;;;;33.77;59.91;100173.59;4917698;28;66799;-36
2023/08/29 07:39:56;;;;;;;5.97;5.47;;;;;;;33.81;59.78;100175.53;4898693;28;69226;-36
2023/08/29 07:42:26;;;;;;;5.60;5.10;;;;;;;33.80;59.87;100173.91;4917479;28;66268;-36
2023/08/29 07:44:56;;;;;;;6.55;6.00;;;;;;;33.89;59.41;100189.75;4914888;28;70493;-37
2023/08/29 07:47:27;;;;;;;6.97;6.38;;;;;;;33.79;59.89;100180.44;4891674;28;65700;-36
2023/08/29 07:49:57;;;;;;;8.70;7.47;;;;;;;33.93;59.31;100202.56;4921968;28;68155;-36
2023/08/29 07:52:28;;;;;;;7.57;6.97;;;;;;;33.91;59.46;100179.44;4910250;28;66470;-37
2023/08/29 07:54:58;;;;;;;7.70;7.00;;;;;;;33.92;59.28;100184.63;4911163;28;70682;-36
2023/08/29 07:57:29;;;;;;;7.88;7.38;;;;;;;33.99;59.48;100189.84;4912550;28;66142;-37
2023/08/29 07:59:59;;;;;;;9.07;8.15;;;;;;;34.06;59.23;100201.38;4911930;28;70017;-36
2023/08/29 08:02:38;;;;;;;9.80;8.82;;;;;;;34.01;59.17;100198.56;4908712;28;65449;-37
2023/08/29 08:05:14;;;;;;;9.02;8.23;;;;;;;34.12;58.63;100205.78;4911777;28;69661;-36
2023/08/29 08:07:45;;;;;;;10.02;8.88;;;;;;;34.16;59.21;100206.91;4907625;28;66334;-37
2023/08/29 08:10:18;;;;;;;10.43;9.30;;;;;;;33.84;58.67;100148.91;4913654;28;69833;-38
2023/08/29 08:12:49;;;;;;;9.90;9.05;;;;;;;34.15;59.25;100186.19;4907586;28;65182;-38
2023/08/29 08:15:20;;;;;;;10.47;9.13;;;;;;;34.15;59.19;100178.03;4916374;28;70347;-37
2023/08/29 08:17:51;;;;;;;10.02;9.25;;;;;;;34.19;58.58;100173.72;4905743;28;65752;-36
2023/08/29 08:20:22;;;;;;;10.45;9.55;;;;;;;34.21;58.97;100166.13;4906627;28;70289;-37
2023/08/29 08:22:52;;;;;;;10.70;9.90;;;;;;;34.18;58.58;100172.06;4919523;28;65800;-36
2023/08/29 08:25:23;;;;;;;10.80;9.70;;;;;;;34.25;58.83;100177.31;4907196;28;70505;-36
2023/08/29 08:27:53;;;;;;;11.98;10.00;;;;;;;34.22;58.57;100167.75;4914182;28;65679;-42
2023/08/29 08:30:28;;;;;;;10.82;9.73;;;;;;;34.28;58.75;100174.06;4908105;28;70731;-37
2023/08/29 08:32:59;;;;;;;10.30;9.32;;;;;;;34.28;58.92;100197.75;4914766;28;66630;-37
2023/08/29 08:35:30;;;;;;;9.75;9.00;;;;;;;34.25;58.64;100210.78;4908835;28;70099;-37
2023/08/29 08:38:07;;;;;;;10.00;9.00;;;;;;;34.28;58.42;100214.91;4916276;28;65549;-38
2023/08/29 08:40:38;;;;;;;9.77;8.98;;;;;;;34.26;58.28;100209.72;4914989;28;69488;-36
2023/08/29 08:43:10;;;;;;;9.77;8.93;;;;;;;34.28;58.65;100209.47;4911675;28;66429;-37
2023/08/29 08:45:42;;;;;;;9.98;9.05;;;;;;;34.31;58.69;100214.38;4910106;28;69834;-35
2023/08/29 08:48:13;;;;;;;10.18;9.40;;;;;;;34.30;58.14;100209.19;4914486;28;65596;-37
2023/08/29 08:50:45;;;;;;;10.02;9.32;;;;;;;33.91;58.52;100141.34;4912528;28;69888;-36
2023/08/29 08:53:18;;;;;;;10.35;9.43;;;;;;;34.32;58.72;100198.88;4915005;28;66304;-37
2023/08/29 08:55:50;;;;;;;10.52;9.70;;;;;;;34.23;58.56;100190.34;4908737;28;67702;-36
2023/08/29 08:58:21;;;;;;;10.30;9.40;;;;;;;34.29;58.58;100202.91;4920109;28;65615;-36
2023/08/29 09:00:52;;;;;;;10.90;9.80;;;;;;;34.26;58.51;100212.44;4917242;28;70418;-37
2023/08/29 09:03:22;;;;;;;10.45;9.52;;;;;;;34.26;58.47;100206.16;4916759;28;65147;-36
2023/08/29 09:05:53;;;;;;;9.43;8.57;;;;;;;34.26;58.34;100209.72;4920771;28;69254;-37
2023/08/29 09:08:23;;;;;;;10.60;9.40;;;;;;;34.29;58.63;100207.56;4917443;28;66054;-37
2023/08/29 09:10:53;;;;;;;11.43;9.60;;;;;;;34.19;58.88;100195.50;4918184;28;70193;-36
2023/08/29 09:13:24;;;;;;;9.93;9.05;;;;;;;34.26;58.59;100203.44;4916658;28;66402;-37
2023/08/29 09:15:54;;;;;;;9.70;8.80;;;;;;;34.25;58.71;100205.34;4922450;28;69583;-39
2023/08/29 09:18:28;;;;;;;13.70;9.18;;;;;;;34.23;58.58;100217.56;4921862;28;66249;-37
2023/08/29 09:21:04;;;;;;;9.70;8.77;;;;;;;34.21;58.46;100215.13;4919092;28;69411;-37
2023/08/29 09:23:39;;;;;;;9.93;9.13;;;;;;;34.19;58.79;100211.84;4924096;28;66322;-36
2023/08/29 09:26:12;;;;;;;10.38;9.48;;;;;;;34.18;58.80;100204.72;4932472;28;69960;-35
2023/08/29 09:28:43;;;;;;;10.05;9.35;;;;;;;34.22;58.69;100222.22;4915921;28;66106;-36
2023/08/29 09:31:16;;;;;;;10.80;9.88;;;;;;;34.21;59.04;100209.69;4914962;28;69134;-38
2023/08/29 09:33:47;;;;;;;11.15;9.43;;;;;;;34.21;59.00;100209.69;4915828;28;66469;-36
2023/08/29 09:36:21;;;;;;;12.15;10.82;;;;;;;34.14;58.99;100194.66;4916795;28;69272;-37
2023/08/29 09:38:53;;;;;;;12.52;10.80;;;;;;;34.20;59.09;100208.03;4899779;28;66660;-36
2023/08/29 09:41:23;;;;;;;10.90;10.00;;;;;;;34.18;58.92;100204.72;4921683;28;69452;-40
2023/08/29 09:43:54;;;;;;;11.13;10.13;;;;;;;34.18;58.92;100204.72;4901780;28;65313;-37
2023/08/29 09:46:29;;;;;;;11.38;10.25;;;;;;;34.19;59.32;100211.03;4931799;28;69747;-37
2023/08/29 09:49:00;;;;;;;10.85;9.93;;;;;;;34.18;59.13;100226.50;4935070;28;65560;-36
2023/08/29 09:51:31;;;;;;;11.93;10.70;;;;;;;34.18;59.56;100223.78;4920747;28;69833;-36
2023/08/29 09:54:08;;;;;;;13.10;10.35;;;;;;;34.16;59.62;100217.81;4916336;28;66519;-38
2023/08/29 09:56:43;;;;;;;12.13;10.85;;;;;;;33.99;60.11;100187.13;4923769;28;70143;-35
2023/08/29 09:59:17;;;;;;;10.68;9.77;;;;;;;34.16;59.87;100217.81;4908813;28;66553;-37
2023/08/29 10:01:52;;;;;;;11.90;10.68;;;;;;;33.78;59.46;100157.00;4895404;28;69931;-37
2023/08/29 10:04:24;;;;;;;12.13;10.93;;;;;;;34.15;59.59;100221.59;4904064;28;66233;-37
2023/08/29 10:06:57;;;;;;;11.60;10.50;;;;;;;33.84;60.16;100186.97;4905130;28;68973;-37
2023/08/29 10:09:30;;;;;;;11.95;10.75;;;;;;;34.05;60.05;100231.59;4905826;28;66628;-37
2023/08/29 10:12:02;;;;;;;12.07;10.88;;;;;;;34.13;59.91;100251.00;4910402;28;70114;-37
2023/08/29 10:14:34;;;;;;;13.90;11.50;;;;;;;33.80;59.82;100214.69;4912868;28;64515;-36
2023/08/29 10:17:05;;;;;;;;;;;;;;;33.87;60.48;100262.66;4891753;28;70408;-36
2023/08/29 10:19:50;;;;;;;12.18;11.07;;;;;;;33.97;60.42;100246.44;4911395;28;66869;-36
2023/08/29 10:22:23;;;;;;;12.73;11.45;;;;;;;34.06;60.40;100266.69;4913893;28;70324;-37
2023/08/29 10:24:55;;;;;;;12.48;11.40;;;;;;;34.04;60.62;100263.34;4903706;28;66719;-37
2023/08/29 10:27:26;;;;;;;15.73;11.35;;;;;;;34.02;60.79;100270.97;4912652;28;69780;-38
2023/08/29 10:29:56;;;;;;;13.88;11.80;;;;;;;34.02;60.71;100265.53;4896651;28;65509;-38
2023/08/29 10:32:28;;;;;;;13.37;11.07;;;;;;;33.96;60.66;100264.66;4917033;28;70216;-37
2023/08/29 10:35:00;;;;;;;12.50;11.35;;;;;;;33.94;60.63;100266.00;4916001;28;66078;-37
2023/08/29 10:37:30;;;;;;;14.63;11.55;;;;;;;33.88;60.67;100264.28;4921312;28;69392;-38
2023/08/29 10:40:11;;;;;;;12.35;11.32;;;;;;;33.93;60.52;100276.03;4917265;28;66203;-40
2023/08/29 10:43:00;;;;;;;12.80;11.45;;;;;;;33.76;60.73;100262.53;4915467;28;70355;-37
2023/08/29 10:46:13;;;;;;;12.40;11.30;;;;;;;33.80;61.34;100290.88;4926269;28;66439;-37
2023/08/29 10:48:43;;;;;;;12.70;11.35;;;;;;;33.90;61.06;100301.03;4891794;28;70222;-37
2023/08/29 10:51:15;;;;;;;13.70;11.43;;;;;;;33.91;60.86;100307.31;4928352;28;65425;-36
2023/08/29 10:54:05;;;;;;;;;;;;;;;33.66;61.51;100318.72;4927770;28;70536;-36
2023/08/29 10:56:43;;;;;;;11.90;10.90;;;;;;;33.83;60.94;100326.81;4923925;28;66579;-36
2023/08/29 10:59:31;;;;;;;15.23;11.20;;;;;;;33.68;60.91;100309.22;4924577;28;70402;-37
2023/08/29 11:02:27;;;;;;;12.30;11.20;;;;;;;33.75;61.28;100336.22;4914591;28;66949;-37
2023/08/29 11:05:03;;;;;;;11.88;10.98;;;;;;;33.80;60.70;100350.72;4921182;28;70492;-36
2023/08/29 11:07:34;;;;;;;11.63;10.52;;;;;;;33.80;61.24;100348.00;4920727;28;65467;-38
2023/08/29 11:10:20;;;;;;;11.55;10.43;;;;;;;33.31;61.12;100290.75;4908042;28;69404;-37
2023/08/29 11:13:09;;;;;;;11.27;10.38;;;;;;;33.71;60.87;100357.69;4909966;28;66365;-36
2023/08/29 11:15:51;;;;;;;11.25;10.18;;;;;;;33.72;61.21;100362.03;4918079;28;70201;-36
2023/08/29 11:18:22;;;;;;;;;;;;;;;33.51;61.71;100376.41;4923185;28;66319;-37
2023/08/29 11:20:53;;;;;;;11.50;10.50;;;;;;;33.71;61.24;100392.19;4924144;28;70285;-36
2023/08/29 11:23:23;;;;;;;;;;;;;;;33.48;62.05;100409.53;4928396;28;66444;-37
2023/08/29 11:25:53;;;;;;;10.77;9.88;;;;;;;33.69;61.12;100413.41;4923543;28;70178;-40
2023/08/29 11:28:23;;;;;;;12.68;10.65;;;;;;;33.68;61.06;100412.56;4927083;28;66592;-37
2023/08/29 11:30:54;;;;;;;11.40;10.30;;;;;;;33.15;61.01;100332.38;4920966;28;70049;-35
2023/08/29 11:33:31;;;;;;;10.20;9.50;;;;;;;33.36;61.41;100372.38;4921339;28;64938;-35
2023/08/29 11:36:05;;;;;;;11.35;10.30;;;;;;;33.68;61.45;100417.19;4914597;28;70095;-36
2023/08/29 11:38:37;;;;;;;11.10;9.65;;;;;;;33.67;61.30;100424.53;4917603;28;66437;-36
2023/08/29 11:41:07;;;;;;;10.68;9.70;;;;;;;33.64;61.33;100413.34;4906110;28;70449;-36
2023/08/29 11:43:57;;;;;;;10.00;9.00;;;;;;;33.63;61.20;100415.25;4917894;28;66182;-36